sensor_id;sensor_type;location;lat;lon;timestamp;P1;durP1;ratioP1;P2;durP2;ratioP2
52642;SDS011;38531;53.296;6.614;2023-07-16T00:01:51;6.35;;;0.90;;
52642;SDS011;38531;53.296;6.614;2023-07-16T00:04:17;4.40;;;0.75;;
52642;SDS011;38531;53.296;6.614;2023-07-16T00:06:43;6.18;;;0.80;;
52642;SDS011;38531;53.296;6.614;2023-07-16T00:09:09;3.83;;;1.00;;
52642;SDS011;38531;53.296;6.614;2023-07-16T00:11:34;3.90;;;0.80;;
52642;SDS011;38531;53.296;6.614;2023-07-16T00:14:00;4.63;;;0.90;;
52642;SDS011;38531;53.296;6.614;2023-07-16T00:16:27;3.10;;;0.70;;
52642;SDS011;38531;53.296;6.614;2023-07-16T00:18:53;3.08;;;0.80;;
52642;SDS011;38531;53.296;6.614;2023-07-16T00:21:18;1.10;;;0.80;;
52642;SDS011;38531;53.296;6.614;2023-07-16T00:23:45;6.28;;;1.10;;
52642;SDS011;38531;53.296;6.614;2023-07-16T00:26:11;5.82;;;1.50;;
52642;SDS011;38531;53.296;6.614;2023-07-16T00:28:37;3.80;;;0.85;;
52642;SDS011;38531;53.296;6.614;2023-07-16T00:31:03;3.60;;;0.90;;
52642;SDS011;38531;53.296;6.614;2023-07-16T00:33:29;4.72;;;1.20;;
52642;SDS011;38531;53.296;6.614;2023-07-16T00:35:55;2.35;;;0.95;;
52642;SDS011;38531;53.296;6.614;2023-07-16T00:38:20;6.05;;;1.20;;
52642;SDS011;38531;53.296;6.614;2023-07-16T00:40:46;3.20;;;1.00;;
52642;SDS011;38531;53.296;6.614;2023-07-16T00:43:13;5.38;;;0.90;;
52642;SDS011;38531;53.296;6.614;2023-07-16T00:45:39;4.18;;;1.00;;
52642;SDS011;38531;53.296;6.614;2023-07-16T00:48:06;6.93;;;1.00;;
52642;SDS011;38531;53.296;6.614;2023-07-16T00:50:32;5.97;;;1.17;;
52642;SDS011;38531;53.296;6.614;2023-07-16T00:53:02;4.85;;;0.98;;
52642;SDS011;38531;53.296;6.614;2023-07-16T00:55:31;6.28;;;1.67;;
52642;SDS011;38531;53.296;6.614;2023-07-16T00:57:59;8.30;;;1.48;;
52642;SDS011;38531;53.296;6.614;2023-07-16T01:00:30;3.53;;;1.00;;
52642;SDS011;38531;53.296;6.614;2023-07-16T01:02:56;3.22;;;0.77;;
52642;SDS011;38531;53.296;6.614;2023-07-16T01:05:22;4.75;;;1.00;;
52642;SDS011;38531;53.296;6.614;2023-07-16T01:07:58;6.55;;;1.13;;
52642;SDS011;38531;53.296;6.614;2023-07-16T01:10:27;6.47;;;1.02;;
52642;SDS011;38531;53.296;6.614;2023-07-16T01:12:54;12.82;;;1.77;;
52642;SDS011;38531;53.296;6.614;2023-07-16T01:15:21;5.95;;;1.00;;
52642;SDS011;38531;53.296;6.614;2023-07-16T01:17:47;4.25;;;1.50;;
52642;SDS011;38531;53.296;6.614;2023-07-16T01:20:13;8.48;;;1.63;;
52642;SDS011;38531;53.296;6.614;2023-07-16T01:25:39;3.10;;;1.23;;
52642;SDS011;38531;53.296;6.614;2023-07-16T01:28:53;4.82;;;0.98;;
52642;SDS011;38531;53.296;6.614;2023-07-16T01:31:19;3.85;;;1.00;;
52642;SDS011;38531;53.296;6.614;2023-07-16T01:33:48;5.25;;;1.20;;
52642;SDS011;38531;53.296;6.614;2023-07-16T01:36:16;4.78;;;1.00;;
52642;SDS011;38531;53.296;6.614;2023-07-16T01:38:43;6.82;;;1.25;;
52642;SDS011;38531;53.296;6.614;2023-07-16T01:41:10;4.07;;;1.10;;
52642;SDS011;38531;53.296;6.614;2023-07-16T01:43:36;3.20;;;1.13;;
52642;SDS011;38531;53.296;6.614;2023-07-16T01:46:02;7.20;;;1.30;;
52642;SDS011;38531;53.296;6.614;2023-07-16T01:48:34;3.42;;;0.90;;
52642;SDS011;38531;53.296;6.614;2023-07-16T01:51:01;6.00;;;2.17;;
52642;SDS011;38531;53.296;6.614;2023-07-16T01:53:27;5.38;;;1.00;;
52642;SDS011;38531;53.296;6.614;2023-07-16T01:55:53;3.88;;;0.90;;
52642;SDS011;38531;53.296;6.614;2023-07-16T01:58:19;6.32;;;1.23;;
52642;SDS011;38531;53.296;6.614;2023-07-16T02:00:45;5.43;;;1.13;;
52642;SDS011;38531;53.296;6.614;2023-07-16T02:03:11;5.05;;;1.00;;
52642;SDS011;38531;53.296;6.614;2023-07-16T02:05:36;7.03;;;1.35;;
52642;SDS011;38531;53.296;6.614;2023-07-16T02:08:02;5.18;;;1.05;;
52642;SDS011;38531;53.296;6.614;2023-07-16T02:10:28;5.43;;;1.30;;
52642;SDS011;38531;53.296;6.614;2023-07-16T02:12:54;3.33;;;0.98;;
52642;SDS011;38531;53.296;6.614;2023-07-16T02:15:19;8.38;;;1.08;;
52642;SDS011;38531;53.296;6.614;2023-07-16T02:17:45;6.57;;;0.90;;
52642;SDS011;38531;53.296;6.614;2023-07-16T02:20:12;4.20;;;0.70;;
52642;SDS011;38531;53.296;6.614;2023-07-16T02:22:37;3.42;;;0.95;;
52642;SDS011;38531;53.296;6.614;2023-07-16T02:25:04;5.35;;;1.15;;
52642;SDS011;38531;53.296;6.614;2023-07-16T02:27:30;3.28;;;0.85;;
52642;SDS011;38531;53.296;6.614;2023-07-16T02:29:56;5.10;;;1.00;;
52642;SDS011;38531;53.296;6.614;2023-07-16T02:32:21;4.70;;;0.80;;
52642;SDS011;38531;53.296;6.614;2023-07-16T02:34:48;3.88;;;0.98;;
52642;SDS011;38531;53.296;6.614;2023-07-16T02:37:14;4.70;;;0.88;;
52642;SDS011;38531;53.296;6.614;2023-07-16T02:39:40;4.65;;;1.17;;
52642;SDS011;38531;53.296;6.614;2023-07-16T02:42:07;3.95;;;1.25;;
52642;SDS011;38531;53.296;6.614;2023-07-16T02:44:33;6.25;;;1.20;;
52642;SDS011;38531;53.296;6.614;2023-07-16T02:47:03;2.97;;;0.93;;
52642;SDS011;38531;53.296;6.614;2023-07-16T02:49:29;2.63;;;1.08;;
52642;SDS011;38531;53.296;6.614;2023-07-16T02:51:54;2.90;;;1.35;;
52642;SDS011;38531;53.296;6.614;2023-07-16T02:54:20;4.05;;;1.30;;
52642;SDS011;38531;53.296;6.614;2023-07-16T02:56:46;6.78;;;1.30;;
52642;SDS011;38531;53.296;6.614;2023-07-16T02:59:12;6.65;;;1.20;;
52642;SDS011;38531;53.296;6.614;2023-07-16T03:01:38;3.78;;;1.17;;
52642;SDS011;38531;53.296;6.614;2023-07-16T03:04:03;3.80;;;1.52;;
52642;SDS011;38531;53.296;6.614;2023-07-16T03:06:29;4.75;;;1.50;;
52642;SDS011;38531;53.296;6.614;2023-07-16T03:08:55;3.38;;;1.30;;
52642;SDS011;38531;53.296;6.614;2023-07-16T03:11:20;3.58;;;1.63;;
52642;SDS011;38531;53.296;6.614;2023-07-16T03:13:46;2.63;;;1.30;;
52642;SDS011;38531;53.296;6.614;2023-07-16T03:16:12;4.90;;;1.52;;
52642;SDS011;38531;53.296;6.614;2023-07-16T03:18:37;7.32;;;1.50;;
52642;SDS011;38531;53.296;6.614;2023-07-16T03:21:03;6.75;;;1.75;;
52642;SDS011;38531;53.296;6.614;2023-07-16T03:23:29;4.13;;;1.40;;
52642;SDS011;38531;53.296;6.614;2023-07-16T03:25:54;2.38;;;1.33;;
52642;SDS011;38531;53.296;6.614;2023-07-16T03:28:20;5.20;;;1.30;;
52642;SDS011;38531;53.296;6.614;2023-07-16T03:30:47;7.25;;;2.08;;
52642;SDS011;38531;53.296;6.614;2023-07-16T03:33:13;5.00;;;1.90;;
52642;SDS011;38531;53.296;6.614;2023-07-16T03:35:42;8.73;;;1.73;;
52642;SDS011;38531;53.296;6.614;2023-07-16T03:38:11;6.72;;;1.98;;
52642;SDS011;38531;53.296;6.614;2023-07-16T03:40:38;8.43;;;1.77;;
52642;SDS011;38531;53.296;6.614;2023-07-16T03:43:04;9.27;;;1.50;;
52642;SDS011;38531;53.296;6.614;2023-07-16T03:45:30;5.15;;;1.33;;
52642;SDS011;38531;53.296;6.614;2023-07-16T03:47:56;4.30;;;1.55;;
52642;SDS011;38531;53.296;6.614;2023-07-16T03:50:22;6.78;;;1.65;;
52642;SDS011;38531;53.296;6.614;2023-07-16T03:52:47;4.93;;;1.25;;
52642;SDS011;38531;53.296;6.614;2023-07-16T03:55:13;6.85;;;1.65;;
52642;SDS011;38531;53.296;6.614;2023-07-16T03:57:39;10.02;;;2.15;;
52642;SDS011;38531;53.296;6.614;2023-07-16T04:00:06;4.22;;;1.90;;
52642;SDS011;38531;53.296;6.614;2023-07-16T04:02:34;8.95;;;1.95;;
52642;SDS011;38531;53.296;6.614;2023-07-16T04:05:00;5.53;;;2.15;;
52642;SDS011;38531;53.296;6.614;2023-07-16T04:07:26;11.35;;;1.65;;
52642;SDS011;38531;53.296;6.614;2023-07-16T04:09:52;4.60;;;1.85;;
52642;SDS011;38531;53.296;6.614;2023-07-16T04:12:18;5.00;;;1.55;;
52642;SDS011;38531;53.296;6.614;2023-07-16T04:14:44;5.88;;;1.63;;
52642;SDS011;38531;53.296;6.614;2023-07-16T04:17:09;7.72;;;1.85;;
52642;SDS011;38531;53.296;6.614;2023-07-16T04:19:35;6.82;;;2.08;;
52642;SDS011;38531;53.296;6.614;2023-07-16T04:22:01;5.60;;;1.70;;
52642;SDS011;38531;53.296;6.614;2023-07-16T04:24:27;6.93;;;2.67;;
52642;SDS011;38531;53.296;6.614;2023-07-16T04:26:53;10.52;;;2.25;;
52642;SDS011;38531;53.296;6.614;2023-07-16T04:29:19;8.95;;;2.40;;
52642;SDS011;38531;53.296;6.614;2023-07-16T04:31:45;6.85;;;1.83;;
52642;SDS011;38531;53.296;6.614;2023-07-16T04:34:10;7.13;;;2.15;;
52642;SDS011;38531;53.296;6.614;2023-07-16T04:36:36;7.93;;;2.15;;
52642;SDS011;38531;53.296;6.614;2023-07-16T04:39:03;8.40;;;2.33;;
52642;SDS011;38531;53.296;6.614;2023-07-16T04:41:29;4.70;;;2.03;;
52642;SDS011;38531;53.296;6.614;2023-07-16T04:43:55;6.22;;;2.13;;
52642;SDS011;38531;53.296;6.614;2023-07-16T04:46:21;6.32;;;2.35;;
52642;SDS011;38531;53.296;6.614;2023-07-16T04:48:47;6.75;;;2.30;;
52642;SDS011;38531;53.296;6.614;2023-07-16T04:51:12;6.78;;;2.35;;
52642;SDS011;38531;53.296;6.614;2023-07-16T04:53:38;6.07;;;1.58;;
52642;SDS011;38531;53.296;6.614;2023-07-16T04:56:04;6.00;;;2.05;;
52642;SDS011;38531;53.296;6.614;2023-07-16T04:58:35;5.63;;;2.22;;
52642;SDS011;38531;53.296;6.614;2023-07-16T05:01:00;5.40;;;1.83;;
52642;SDS011;38531;53.296;6.614;2023-07-16T05:03:26;8.05;;;2.47;;
52642;SDS011;38531;53.296;6.614;2023-07-16T05:05:52;6.80;;;2.70;;
52642;SDS011;38531;53.296;6.614;2023-07-16T05:08:17;6.20;;;2.45;;
52642;SDS011;38531;53.296;6.614;2023-07-16T05:10:43;6.95;;;3.05;;
52642;SDS011;38531;53.296;6.614;2023-07-16T05:13:09;6.30;;;2.55;;
52642;SDS011;38531;53.296;6.614;2023-07-16T05:15:34;7.00;;;2.83;;
52642;SDS011;38531;53.296;6.614;2023-07-16T05:18:00;7.38;;;2.20;;
52642;SDS011;38531;53.296;6.614;2023-07-16T05:20:26;7.78;;;2.53;;
52642;SDS011;38531;53.296;6.614;2023-07-16T05:22:51;8.82;;;2.22;;
52642;SDS011;38531;53.296;6.614;2023-07-16T05:25:17;9.25;;;2.88;;
52642;SDS011;38531;53.296;6.614;2023-07-16T05:27:43;7.35;;;2.67;;
52642;SDS011;38531;53.296;6.614;2023-07-16T05:30:08;7.93;;;2.65;;
52642;SDS011;38531;53.296;6.614;2023-07-16T05:32:35;8.02;;;3.20;;
52642;SDS011;38531;53.296;6.614;2023-07-16T05:35:01;7.10;;;3.40;;
52642;SDS011;38531;53.296;6.614;2023-07-16T05:37:26;5.63;;;2.25;;
52642;SDS011;38531;53.296;6.614;2023-07-16T05:39:55;7.82;;;2.15;;
52642;SDS011;38531;53.296;6.614;2023-07-16T05:42:21;6.20;;;2.03;;
52642;SDS011;38531;53.296;6.614;2023-07-16T05:44:47;7.50;;;2.63;;
52642;SDS011;38531;53.296;6.614;2023-07-16T05:47:12;8.10;;;1.80;;
52642;SDS011;38531;53.296;6.614;2023-07-16T05:49:38;7.97;;;2.22;;
52642;SDS011;38531;53.296;6.614;2023-07-16T05:52:04;7.57;;;2.08;;
52642;SDS011;38531;53.296;6.614;2023-07-16T05:54:30;5.47;;;2.08;;
52642;SDS011;38531;53.296;6.614;2023-07-16T05:56:56;6.55;;;2.00;;
52642;SDS011;38531;53.296;6.614;2023-07-16T05:59:22;6.95;;;1.83;;
52642;SDS011;38531;53.296;6.614;2023-07-16T06:01:48;5.95;;;2.05;;
52642;SDS011;38531;53.296;6.614;2023-07-16T06:04:14;6.00;;;2.05;;
52642;SDS011;38531;53.296;6.614;2023-07-16T06:06:39;4.00;;;1.23;;
52642;SDS011;38531;53.296;6.614;2023-07-16T06:09:05;7.85;;;1.92;;
52642;SDS011;38531;53.296;6.614;2023-07-16T06:11:31;8.45;;;2.17;;
52642;SDS011;38531;53.296;6.614;2023-07-16T06:13:56;8.50;;;1.70;;
52642;SDS011;38531;53.296;6.614;2023-07-16T06:16:22;5.60;;;1.50;;
52642;SDS011;38531;53.296;6.614;2023-07-16T06:18:48;6.15;;;1.92;;
52642;SDS011;38531;53.296;6.614;2023-07-16T06:21:14;5.43;;;1.50;;
52642;SDS011;38531;53.296;6.614;2023-07-16T06:23:39;4.30;;;1.83;;
52642;SDS011;38531;53.296;6.614;2023-07-16T06:26:05;6.07;;;1.60;;
52642;SDS011;38531;53.296;6.614;2023-07-16T06:28:31;5.65;;;1.90;;
52642;SDS011;38531;53.296;6.614;2023-07-16T06:30:57;3.58;;;1.50;;
52642;SDS011;38531;53.296;6.614;2023-07-16T06:33:23;6.45;;;1.55;;
52642;SDS011;38531;53.296;6.614;2023-07-16T06:35:50;4.43;;;1.38;;
52642;SDS011;38531;53.296;6.614;2023-07-16T06:38:16;4.85;;;1.50;;
52642;SDS011;38531;53.296;6.614;2023-07-16T06:40:48;4.72;;;1.25;;
52642;SDS011;38531;53.296;6.614;2023-07-16T06:43:15;3.85;;;1.63;;
52642;SDS011;38531;53.296;6.614;2023-07-16T06:45:41;8.57;;;1.80;;
52642;SDS011;38531;53.296;6.614;2023-07-16T06:48:07;9.02;;;1.85;;
52642;SDS011;38531;53.296;6.614;2023-07-16T06:50:33;4.25;;;1.38;;
52642;SDS011;38531;53.296;6.614;2023-07-16T06:52:59;6.63;;;1.77;;
52642;SDS011;38531;53.296;6.614;2023-07-16T06:55:24;4.88;;;1.90;;
52642;SDS011;38531;53.296;6.614;2023-07-16T06:57:50;6.78;;;1.60;;
52642;SDS011;38531;53.296;6.614;2023-07-16T07:00:16;8.30;;;1.77;;
52642;SDS011;38531;53.296;6.614;2023-07-16T07:02:42;5.50;;;2.10;;
52642;SDS011;38531;53.296;6.614;2023-07-16T07:05:07;4.55;;;1.75;;
52642;SDS011;38531;53.296;6.614;2023-07-16T07:07:33;5.05;;;1.80;;
52642;SDS011;38531;53.296;6.614;2023-07-16T07:09:59;7.43;;;2.20;;
52642;SDS011;38531;53.296;6.614;2023-07-16T07:12:25;10.00;;;2.13;;
52642;SDS011;38531;53.296;6.614;2023-07-16T07:14:51;6.05;;;2.20;;
52642;SDS011;38531;53.296;6.614;2023-07-16T07:17:16;5.93;;;1.80;;
52642;SDS011;38531;53.296;6.614;2023-07-16T07:19:42;4.13;;;1.80;;
52642;SDS011;38531;53.296;6.614;2023-07-16T07:22:08;8.02;;;2.08;;
52642;SDS011;38531;53.296;6.614;2023-07-16T07:24:34;6.55;;;2.10;;
52642;SDS011;38531;53.296;6.614;2023-07-16T07:27:00;6.53;;;1.75;;
52642;SDS011;38531;53.296;6.614;2023-07-16T07:29:25;4.40;;;1.83;;
52642;SDS011;38531;53.296;6.614;2023-07-16T07:31:52;5.13;;;1.88;;
52642;SDS011;38531;53.296;6.614;2023-07-16T07:34:17;6.25;;;2.70;;
52642;SDS011;38531;53.296;6.614;2023-07-16T07:36:43;7.25;;;1.88;;
52642;SDS011;38531;53.296;6.614;2023-07-16T07:39:09;6.85;;;1.73;;
52642;SDS011;38531;53.296;6.614;2023-07-16T07:41:35;4.32;;;1.95;;
52642;SDS011;38531;53.296;6.614;2023-07-16T07:44:03;4.15;;;2.28;;
52642;SDS011;38531;53.296;6.614;2023-07-16T07:46:29;3.40;;;1.70;;
52642;SDS011;38531;53.296;6.614;2023-07-16T07:48:54;7.15;;;2.25;;
52642;SDS011;38531;53.296;6.614;2023-07-16T07:51:20;4.20;;;1.83;;
52642;SDS011;38531;53.296;6.614;2023-07-16T07:53:46;7.80;;;2.20;;
52642;SDS011;38531;53.296;6.614;2023-07-16T07:56:11;5.05;;;2.42;;
52642;SDS011;38531;53.296;6.614;2023-07-16T07:58:37;5.25;;;2.03;;
52642;SDS011;38531;53.296;6.614;2023-07-16T08:01:06;7.10;;;1.90;;
52642;SDS011;38531;53.296;6.614;2023-07-16T08:03:32;10.10;;;2.22;;
52642;SDS011;38531;53.296;6.614;2023-07-16T08:05:59;7.35;;;2.10;;
52642;SDS011;38531;53.296;6.614;2023-07-16T08:08:24;7.75;;;2.25;;
52642;SDS011;38531;53.296;6.614;2023-07-16T08:10:50;5.03;;;1.80;;
52642;SDS011;38531;53.296;6.614;2023-07-16T08:13:16;3.47;;;1.52;;
52642;SDS011;38531;53.296;6.614;2023-07-16T08:15:41;4.15;;;1.80;;
52642;SDS011;38531;53.296;6.614;2023-07-16T08:18:07;7.05;;;1.90;;
52642;SDS011;38531;53.296;6.614;2023-07-16T08:20:35;6.25;;;2.03;;
52642;SDS011;38531;53.296;6.614;2023-07-16T08:23:01;5.57;;;1.95;;
52642;SDS011;38531;53.296;6.614;2023-07-16T08:25:27;6.95;;;2.42;;
52642;SDS011;38531;53.296;6.614;2023-07-16T08:27:53;5.50;;;2.13;;
52642;SDS011;38531;53.296;6.614;2023-07-16T08:30:18;3.00;;;1.42;;
52642;SDS011;38531;53.296;6.614;2023-07-16T08:32:44;4.38;;;1.75;;
52642;SDS011;38531;53.296;6.614;2023-07-16T08:35:10;7.05;;;1.85;;
52642;SDS011;38531;53.296;6.614;2023-07-16T08:37:44;4.47;;;1.88;;
52642;SDS011;38531;53.296;6.614;2023-07-16T08:40:11;3.50;;;1.85;;
52642;SDS011;38531;53.296;6.614;2023-07-16T08:42:38;7.22;;;2.33;;
52642;SDS011;38531;53.296;6.614;2023-07-16T08:45:06;5.78;;;1.85;;
52642;SDS011;38531;53.296;6.614;2023-07-16T08:47:33;6.55;;;2.00;;
52642;SDS011;38531;53.296;6.614;2023-07-16T08:50:00;6.65;;;2.08;;
52642;SDS011;38531;53.296;6.614;2023-07-16T08:52:26;6.43;;;2.42;;
52642;SDS011;38531;53.296;6.614;2023-07-16T08:54:53;6.40;;;2.47;;
52642;SDS011;38531;53.296;6.614;2023-07-16T08:57:19;6.65;;;2.38;;
52642;SDS011;38531;53.296;6.614;2023-07-16T08:59:49;8.32;;;2.15;;
52642;SDS011;38531;53.296;6.614;2023-07-16T09:02:19;7.40;;;2.30;;
52642;SDS011;38531;53.296;6.614;2023-07-16T09:04:48;10.43;;;2.50;;
52642;SDS011;38531;53.296;6.614;2023-07-16T09:07:16;6.10;;;2.60;;
52642;SDS011;38531;53.296;6.614;2023-07-16T09:09:42;6.55;;;2.38;;
52642;SDS011;38531;53.296;6.614;2023-07-16T09:12:11;5.60;;;2.00;;
52642;SDS011;38531;53.296;6.614;2023-07-16T09:14:37;6.82;;;2.30;;
52642;SDS011;38531;53.296;6.614;2023-07-16T09:17:05;5.30;;;2.35;;
52642;SDS011;38531;53.296;6.614;2023-07-16T09:19:34;6.82;;;2.03;;
52642;SDS011;38531;53.296;6.614;2023-07-16T09:22:01;6.55;;;2.13;;
52642;SDS011;38531;53.296;6.614;2023-07-16T09:24:26;4.47;;;1.70;;
52642;SDS011;38531;53.296;6.614;2023-07-16T09:26:54;10.35;;;2.42;;
52642;SDS011;38531;53.296;6.614;2023-07-16T09:29:24;5.28;;;1.90;;
52642;SDS011;38531;53.296;6.614;2023-07-16T09:31:52;6.93;;;2.40;;
52642;SDS011;38531;53.296;6.614;2023-07-16T09:34:21;4.53;;;2.13;;
52642;SDS011;38531;53.296;6.614;2023-07-16T09:36:47;4.70;;;1.33;;
52642;SDS011;38531;53.296;6.614;2023-07-16T09:39:15;5.47;;;1.65;;
52642;SDS011;38531;53.296;6.614;2023-07-16T09:41:43;7.85;;;1.77;;
52642;SDS011;38531;53.296;6.614;2023-07-16T09:44:10;6.07;;;1.80;;
52642;SDS011;38531;53.296;6.614;2023-07-16T09:46:37;5.43;;;1.83;;
52642;SDS011;38531;53.296;6.614;2023-07-16T09:49:02;5.32;;;2.03;;
52642;SDS011;38531;53.296;6.614;2023-07-16T09:51:28;5.57;;;2.10;;
52642;SDS011;38531;53.296;6.614;2023-07-16T09:53:57;4.80;;;1.80;;
52642;SDS011;38531;53.296;6.614;2023-07-16T09:56:26;2.92;;;1.40;;
52642;SDS011;38531;53.296;6.614;2023-07-16T09:59:04;4.53;;;1.40;;
52642;SDS011;38531;53.296;6.614;2023-07-16T10:01:36;6.75;;;2.08;;
52642;SDS011;38531;53.296;6.614;2023-07-16T10:04:12;6.30;;;2.03;;
52642;SDS011;38531;53.296;6.614;2023-07-16T10:09:54;5.10;;;1.73;;
52642;SDS011;38531;53.296;6.614;2023-07-16T10:12:24;3.97;;;1.60;;
52642;SDS011;38531;53.296;6.614;2023-07-16T10:14:52;9.07;;;2.47;;
52642;SDS011;38531;53.296;6.614;2023-07-16T10:17:19;2.65;;;1.42;;
52642;SDS011;38531;53.296;6.614;2023-07-16T10:22:40;9.63;;;1.65;;
52642;SDS011;38531;53.296;6.614;2023-07-16T10:25:10;5.85;;;1.33;;
52642;SDS011;38531;53.296;6.614;2023-07-16T10:27:39;7.95;;;1.70;;
52642;SDS011;38531;53.296;6.614;2023-07-16T10:30:04;3.13;;;1.90;;
52642;SDS011;38531;53.296;6.614;2023-07-16T10:32:31;2.60;;;1.25;;
52642;SDS011;38531;53.296;6.614;2023-07-16T10:34:57;4.88;;;1.50;;
52642;SDS011;38531;53.296;6.614;2023-07-16T10:37:24;4.55;;;1.40;;
52642;SDS011;38531;53.296;6.614;2023-07-16T10:39:51;6.32;;;1.60;;
52642;SDS011;38531;53.296;6.614;2023-07-16T10:42:19;2.97;;;1.40;;
52642;SDS011;38531;53.296;6.614;2023-07-16T10:44:49;3.42;;;1.27;;
52642;SDS011;38531;53.296;6.614;2023-07-16T10:47:23;4.95;;;1.90;;
52642;SDS011;38531;53.296;6.614;2023-07-16T10:49:53;4.80;;;1.60;;
52642;SDS011;38531;53.296;6.614;2023-07-16T10:52:19;4.03;;;1.60;;
52642;SDS011;38531;53.296;6.614;2023-07-16T10:54:48;6.10;;;1.63;;
52642;SDS011;38531;53.296;6.614;2023-07-16T10:57:20;3.60;;;1.60;;
52642;SDS011;38531;53.296;6.614;2023-07-16T10:59:46;4.13;;;1.73;;
52642;SDS011;38531;53.296;6.614;2023-07-16T11:02:14;3.78;;;1.70;;
52642;SDS011;38531;53.296;6.614;2023-07-16T11:04:41;4.55;;;1.60;;
52642;SDS011;38531;53.296;6.614;2023-07-16T11:07:08;8.77;;;1.50;;
52642;SDS011;38531;53.296;6.614;2023-07-16T11:12:14;4.53;;;1.67;;
52642;SDS011;38531;53.296;6.614;2023-07-16T11:14:44;3.80;;;1.60;;
52642;SDS011;38531;53.296;6.614;2023-07-16T11:17:14;7.78;;;1.40;;
52642;SDS011;38531;53.296;6.614;2023-07-16T11:19:40;6.38;;;1.52;;
52642;SDS011;38531;53.296;6.614;2023-07-16T11:22:09;4.15;;;1.55;;
52642;SDS011;38531;53.296;6.614;2023-07-16T11:27:12;4.43;;;1.83;;
52642;SDS011;38531;53.296;6.614;2023-07-16T11:29:51;3.80;;;1.35;;
52642;SDS011;38531;53.296;6.614;2023-07-16T11:32:34;4.65;;;1.65;;
52642;SDS011;38531;53.296;6.614;2023-07-16T11:35:07;2.92;;;1.33;;
52642;SDS011;38531;53.296;6.614;2023-07-16T11:37:34;4.38;;;1.40;;
52642;SDS011;38531;53.296;6.614;2023-07-16T11:40:05;4.78;;;1.35;;
52642;SDS011;38531;53.296;6.614;2023-07-16T11:42:33;4.35;;;1.58;;
52642;SDS011;38531;53.296;6.614;2023-07-16T11:45:00;5.95;;;1.35;;
52642;SDS011;38531;53.296;6.614;2023-07-16T11:47:26;7.32;;;1.70;;
52642;SDS011;38531;53.296;6.614;2023-07-16T11:49:52;5.38;;;1.33;;
52642;SDS011;38531;53.296;6.614;2023-07-16T11:52:19;4.53;;;1.67;;
52642;SDS011;38531;53.296;6.614;2023-07-16T11:54:46;5.95;;;1.42;;
52642;SDS011;38531;53.296;6.614;2023-07-16T11:57:12;7.57;;;1.50;;
52642;SDS011;38531;53.296;6.614;2023-07-16T11:59:38;5.65;;;1.30;;
52642;SDS011;38531;53.296;6.614;2023-07-16T12:02:03;2.80;;;1.35;;
52642;SDS011;38531;53.296;6.614;2023-07-16T12:04:29;3.45;;;1.10;;
52642;SDS011;38531;53.296;6.614;2023-07-16T12:06:55;5.70;;;1.38;;
52642;SDS011;38531;53.296;6.614;2023-07-16T12:09:21;5.30;;;1.33;;
52642;SDS011;38531;53.296;6.614;2023-07-16T12:11:46;3.53;;;1.50;;
52642;SDS011;38531;53.296;6.614;2023-07-16T12:14:12;6.57;;;1.80;;
52642;SDS011;38531;53.296;6.614;2023-07-16T12:16:38;5.68;;;1.55;;
52642;SDS011;38531;53.296;6.614;2023-07-16T12:19:05;4.18;;;1.80;;
52642;SDS011;38531;53.296;6.614;2023-07-16T12:21:32;5.28;;;1.90;;
52642;SDS011;38531;53.296;6.614;2023-07-16T12:23:58;9.15;;;1.92;;
52642;SDS011;38531;53.296;6.614;2023-07-16T12:26:23;4.40;;;1.88;;
52642;SDS011;38531;53.296;6.614;2023-07-16T12:28:49;6.18;;;2.00;;
52642;SDS011;38531;53.296;6.614;2023-07-16T12:31:15;5.55;;;1.52;;
52642;SDS011;38531;53.296;6.614;2023-07-16T12:33:42;4.85;;;1.55;;
52642;SDS011;38531;53.296;6.614;2023-07-16T12:36:08;8.05;;;2.45;;
52642;SDS011;38531;53.296;6.614;2023-07-16T12:38:34;5.07;;;1.70;;
52642;SDS011;38531;53.296;6.614;2023-07-16T12:41:00;4.00;;;1.63;;
52642;SDS011;38531;53.296;6.614;2023-07-16T12:43:26;6.03;;;2.00;;
52642;SDS011;38531;53.296;6.614;2023-07-16T12:45:51;7.78;;;2.50;;
52642;SDS011;38531;53.296;6.614;2023-07-16T12:48:17;5.20;;;1.90;;
52642;SDS011;38531;53.296;6.614;2023-07-16T12:50:43;6.72;;;1.70;;
52642;SDS011;38531;53.296;6.614;2023-07-16T12:53:08;4.22;;;1.70;;
52642;SDS011;38531;53.296;6.614;2023-07-16T12:55:34;5.68;;;1.58;;
52642;SDS011;38531;53.296;6.614;2023-07-16T12:58:00;5.47;;;1.75;;
52642;SDS011;38531;53.296;6.614;2023-07-16T13:00:26;4.85;;;1.60;;
52642;SDS011;38531;53.296;6.614;2023-07-16T13:02:51;5.63;;;1.65;;
52642;SDS011;38531;53.296;6.614;2023-07-16T13:05:17;6.50;;;1.98;;
52642;SDS011;38531;53.296;6.614;2023-07-16T13:07:43;5.13;;;1.67;;
52642;SDS011;38531;53.296;6.614;2023-07-16T13:10:09;6.90;;;1.85;;
52642;SDS011;38531;53.296;6.614;2023-07-16T13:12:35;4.60;;;1.83;;
52642;SDS011;38531;53.296;6.614;2023-07-16T13:15:01;5.28;;;1.63;;
52642;SDS011;38531;53.296;6.614;2023-07-16T13:17:28;3.65;;;1.20;;
52642;SDS011;38531;53.296;6.614;2023-07-16T13:19:53;4.10;;;1.60;;
52642;SDS011;38531;53.296;6.614;2023-07-16T13:22:19;3.97;;;1.60;;
52642;SDS011;38531;53.296;6.614;2023-07-16T13:24:44;5.40;;;1.63;;
52642;SDS011;38531;53.296;6.614;2023-07-16T13:27:19;4.70;;;1.20;;
52642;SDS011;38531;53.296;6.614;2023-07-16T13:29:45;4.82;;;1.90;;
52642;SDS011;38531;53.296;6.614;2023-07-16T13:32:11;4.38;;;1.45;;
52642;SDS011;38531;53.296;6.614;2023-07-16T13:34:37;4.30;;;1.33;;
52642;SDS011;38531;53.296;6.614;2023-07-16T13:37:03;7.13;;;1.83;;
52642;SDS011;38531;53.296;6.614;2023-07-16T13:39:29;4.72;;;1.27;;
52642;SDS011;38531;53.296;6.614;2023-07-16T13:41:55;4.97;;;1.35;;
52642;SDS011;38531;53.296;6.614;2023-07-16T13:44:20;7.28;;;1.25;;
52642;SDS011;38531;53.296;6.614;2023-07-16T13:46:46;5.43;;;1.05;;
52642;SDS011;38531;53.296;6.614;2023-07-16T13:49:12;6.40;;;0.88;;
52642;SDS011;38531;53.296;6.614;2023-07-16T13:51:38;6.30;;;1.30;;
52642;SDS011;38531;53.296;6.614;2023-07-16T13:54:04;8.48;;;1.05;;
52642;SDS011;38531;53.296;6.614;2023-07-16T13:56:30;6.28;;;1.02;;
52642;SDS011;38531;53.296;6.614;2023-07-16T13:58:55;2.50;;;0.60;;
52642;SDS011;38531;53.296;6.614;2023-07-16T14:01:21;3.80;;;0.70;;
52642;SDS011;38531;53.296;6.614;2023-07-16T14:03:48;4.53;;;0.77;;
52642;SDS011;38531;53.296;6.614;2023-07-16T14:06:14;8.35;;;0.93;;
52642;SDS011;38531;53.296;6.614;2023-07-16T14:08:39;6.18;;;1.15;;
52642;SDS011;38531;53.296;6.614;2023-07-16T14:11:05;2.78;;;0.60;;
52642;SDS011;38531;53.296;6.614;2023-07-16T14:13:31;3.75;;;0.60;;
52642;SDS011;38531;53.296;6.614;2023-07-16T14:15:57;3.17;;;1.00;;
52642;SDS011;38531;53.296;6.614;2023-07-16T14:18:22;4.05;;;0.60;;
52642;SDS011;38531;53.296;6.614;2023-07-16T14:20:49;4.15;;;0.60;;
52642;SDS011;38531;53.296;6.614;2023-07-16T14:23:14;3.35;;;0.52;;
52642;SDS011;38531;53.296;6.614;2023-07-16T14:25:40;4.57;;;1.55;;
52642;SDS011;38531;53.296;6.614;2023-07-16T14:28:06;6.03;;;0.60;;
52642;SDS011;38531;53.296;6.614;2023-07-16T14:30:32;4.78;;;0.80;;
52642;SDS011;38531;53.296;6.614;2023-07-16T14:32:57;5.25;;;0.70;;
52642;SDS011;38531;53.296;6.614;2023-07-16T14:35:24;6.60;;;1.00;;
52642;SDS011;38531;53.296;6.614;2023-07-16T14:37:50;5.03;;;0.68;;
52642;SDS011;38531;53.296;6.614;2023-07-16T14:40:16;5.10;;;0.75;;
52642;SDS011;38531;53.296;6.614;2023-07-16T14:42:42;3.00;;;0.40;;
52642;SDS011;38531;53.296;6.614;2023-07-16T14:45:09;5.32;;;0.80;;
52642;SDS011;38531;53.296;6.614;2023-07-16T14:47:36;3.25;;;0.70;;
52642;SDS011;38531;53.296;6.614;2023-07-16T14:50:01;5.03;;;0.40;;
52642;SDS011;38531;53.296;6.614;2023-07-16T14:52:27;4.93;;;0.82;;
52642;SDS011;38531;53.296;6.614;2023-07-16T14:54:53;5.95;;;0.60;;
52642;SDS011;38531;53.296;6.614;2023-07-16T14:57:19;3.22;;;0.70;;
52642;SDS011;38531;53.296;6.614;2023-07-16T14:59:45;3.85;;;0.50;;